Map

Track Data

SID SEASON NUMBER BASIN SUBBASIN NAME ISO_TIME NATURE LAT LON WMO_WIND WMO_PRES WMO_AGENCY TRACK_TYPE DIST2LAND LANDFALL IFLAG USA_AGENCY USA_ATCF_ID USA_LAT USA_LON USA_RECORD USA_STATUS USA_WIND USA_PRES USA_SSHS USA_R34_NE USA_R34_SE USA_R34_SW USA_R34_NW USA_R50_NE USA_R50_SE USA_R50_SW USA_R50_NW USA_R64_NE USA_R64_SE USA_R64_SW USA_R64_NW USA_POCI USA_ROCI USA_RMW USA_EYE TOKYO_LAT TOKYO_LON TOKYO_GRADE TOKYO_WIND TOKYO_PRES TOKYO_R50_DIR TOKYO_R50_LONG TOKYO_R50_SHORT TOKYO_R30_DIR TOKYO_R30_LONG TOKYO_R30_SHORT TOKYO_LAND CMA_LAT CMA_LON CMA_CAT CMA_WIND CMA_PRES HKO_LAT HKO_LON HKO_CAT HKO_WIND HKO_PRES NEWDELHI_LAT NEWDELHI_LON NEWDELHI_GRADE NEWDELHI_WIND NEWDELHI_PRES NEWDELHI_CI NEWDELHI_DP NEWDELHI_POCI REUNION_LAT REUNION_LON REUNION_TYPE REUNION_WIND REUNION_PRES REUNION_TNUM REUNION_CI REUNION_RMW REUNION_R34_NE REUNION_R34_SE REUNION_R34_SW REUNION_R34_NW REUNION_R50_NE REUNION_R50_SE REUNION_R50_SW REUNION_R50_NW REUNION_R64_NE REUNION_R64_SE REUNION_R64_SW REUNION_R64_NW BOM_LAT BOM_LON BOM_TYPE BOM_WIND BOM_PRES BOM_TNUM BOM_CI BOM_RMW BOM_R34_NE BOM_R34_SE BOM_R34_SW BOM_R34_NW BOM_R50_NE BOM_R50_SE BOM_R50_SW BOM_R50_NW BOM_R64_NE BOM_R64_SE BOM_R64_SW BOM_R64_NW BOM_ROCI BOM_POCI BOM_EYE BOM_POS_METHOD BOM_PRES_METHOD NADI_LAT NADI_LON NADI_CAT NADI_WIND NADI_PRES WELLINGTON_LAT WELLINGTON_LON WELLINGTON_WIND WELLINGTON_PRES DS824_LAT DS824_LON DS824_STAGE DS824_WIND DS824_PRES TD9636_LAT TD9636_LON TD9636_STAGE TD9636_WIND TD9636_PRES TD9635_LAT TD9635_LON TD9635_WIND TD9635_PRES TD9635_ROCI NEUMANN_LAT NEUMANN_LON NEUMANN_CLASS NEUMANN_WIND NEUMANN_PRES MLC_LAT MLC_LON MLC_CLASS MLC_WIND MLC_PRES USA_GUST BOM_GUST BOM_GUST_PER REUNION_GUST REUNION_GUST_PER USA_SEAHGT USA_SEARAD_NE USA_SEARAD_SE USA_SEARAD_SW USA_SEARAD_NW STORM_SPEED STORM_DIR
2000064S19209 2000 17 SP MM LEO 2000-03-04 00:00:00 TS -18.8000 -150.750 15 1009 nadi main 2360 2321 O_______O___O_ jtwc_sh SH182000 -19.6000 -151.500 20 -1 -18.0000 -150.000 15 1009 -18.0000 -150.000 15 1009 -19.6000 -151.500 TC 20 7 246
2000064S19209 2000 17 SP MM LEO 2000-03-04 03:00:00 TS -18.9476 -151.095 main 2321 2294 P______IP___P_ SH182000 -19.6525 -151.690 20 -1 -18.2428 -150.500 15 1009 -18.2428 -150.500 17 1009 -19.6525 -151.690 TC 20 7 246
2000064S19209 2000 17 SP MM LEO 2000-03-04 06:00:00 TS -19.1000 -151.450 15 1009 nadi main 2294 2256 O_______O___O_ jtwc_sh SH182000 -19.7000 -151.900 20 -1 -18.5000 -151.000 15 1009 -18.5000 -151.000 20 1009 -19.7000 -151.900 TC 20 8 245
2000064S19209 2000 17 SP MM LEO 2000-03-04 09:00:00 TS -19.2637 -151.821 main 2258 2220 P______IP___P_ SH182000 -19.7425 -152.143 20 -1 -18.7849 -151.500 15 1009 -18.7849 -151.500 20 1009 -19.7425 -152.143 TC 20 8 244
2000064S19209 2000 17 SP MM LEO 2000-03-04 12:00:00 TS -19.4500 -152.200 15 1009 nadi main 2220 2194 O_______O___O_ jtwc_sh SH182000 -19.8000 -152.400 20 -1 -19.1000 -152.000 15 1009 -19.1000 -152.000 20 1009 -19.8000 -152.400 TC 20 8 239
2000064S19209 2000 17 SP MM LEO 2000-03-04 15:00:00 TS -19.6748 -152.556 main 2187 2162 P______IP___P_ SH182000 -19.8848 -152.613 22 -1 -19.4649 -152.500 17 1007 -19.4649 -152.500 20 1007 -19.8848 -152.613 TC 22 8 237
2000064S19209 2000 17 SP MM LEO 2000-03-04 18:00:00 TS -19.9000 -152.950 20 1006 nadi main 2162 2115 O_______O___O_ jtwc_sh SH182000 -20.0000 -152.900 25 -1 -19.8000 -153.000 20 1006 -19.8000 -153.000 20 1006 -20.0000 -152.900 TC 25 9 244
2000064S19209 2000 17 SP MM LEO 2000-03-04 21:00:00 TS -20.0658 -153.408 main 2118 2072 P______IP___P_ SH182000 -20.0960 -153.244 25 -1 -20.0299 -153.500 20 1004 -20.0413 -153.643 20 1004 -20.0960 -153.244 TC 25 10 250
2000064S19209 2000 17 SP MM LEO 2000-03-05 00:00:00 TS -20.2500 -153.950 20 1002 nadi main 2072 2013 O_______O___O_ jtwc_sh SH182000 -20.3000 -153.900 25 -1 -20.2000 -154.000 20 1002 -20.2000 -154.000 20 1002 -20.3000 -153.900 TC 25 12 248
2000064S19209 2000 17 SP MM LEO 2000-03-05 03:00:00 TS -20.5293 -154.638 main 2013 1917 P______IO___P_ SH182000 -20.7375 -155.145 25 -1 -20.3420 -154.463 22 1001 -20.3000 -153.800 25 1002 -20.7375 -155.145 TC 25 18 250
2000064S19209 2000 17 SP MM LEO 2000-03-05 06:00:00 TS -20.8500 -155.750 25 1000 nadi main 1917 1849 O_______O___O_ jtwc_sh SH182000 -21.2000 -156.500 25 -1 -20.5000 -155.000 25 1000 -20.5000 -155.000 25 1000 -21.2000 -156.500 TC 25 19 253
2000064S19209 2000 17 SP MM LEO 2000-03-05 09:00:00 TS -21.0819 -156.581 main 1843 1787 P______IP___P_ SH182000 -21.4633 -157.419 25 -1 -20.6971 -155.676 25 1000 -20.7040 -155.809 25 1000 -21.4633 -157.419 TC 25 16 251
2000064S19209 2000 17 SP MM LEO 2000-03-05 12:00:00 TS -21.3500 -157.350 25 1000 nadi main 1778 1724 O_______O___O_ jtwc_sh SH182000 -21.7000 -158.200 25 -1 -21.0000 -156.500 25 1000 -21.0000 -156.500 25 1000 -21.7000 -158.200 TC 25 17 247
2000064S19209 2000 17 SP MM LEO 2000-03-05 15:00:00 TS -21.7488 -158.271 main 1715 1672 P______IP___P_ SH182000 -22.0350 -159.080 25 -1 -21.4625 -157.462 25 1000 -21.4625 -157.462 25 1000 -22.0350 -159.080 TC 25 19 244
2000064S19209 2000 17 SP MM LEO 2000-03-05 18:00:00 TS -22.2000 -159.200 25 1000 nadi main 1663 1620 O_______O___O_ jtwc_sh SH182000 -22.4000 -159.900 25 -1 -22.0000 -158.500 25 1000 -22.0000 -158.500 25 1000 -22.4000 -159.900 TC 25 19 242
2000064S19209 2000 17 SP MM LEO 2000-03-05 21:00:00 TS -22.6171 -160.059 main 1611 1581 P______IP___P_ SH182000 -22.7495 -160.595 25 -1 -22.4848 -159.523 25 999 -22.4848 -159.523 25 999 -22.7495 -160.595 TC 25 17 241
2000064S19209 2000 17 SP MM LEO 2000-03-06 00:00:00 TS -23.0500 -160.850 25 999 nadi main 1573 1563 O_______O___O_ jtwc_sh SH182000 -23.1000 -161.200 25 -1 -23.0000 -160.500 25 999 -23.0000 -160.500 25 999 -23.1000 -161.200 TC 25 17 237
2000064S19209 2000 17 SP MM LEO 2000-03-06 03:00:00 TS -23.5472 -161.587 main 1555 1548 P______IP___P_ SH182000 -23.4571 -161.765 25 -1 -23.6372 -161.409 27 998 -23.6372 -161.409 27 998 -23.4571 -161.765 TC 25 16 233
2000064S19209 2000 17 SP MM LEO 2000-03-06 06:00:00 TS -24.0000 -162.250 30 997 nadi main 1550 1525 O_______O___O_ jtwc_sh SH182000 -23.8000 -162.300 25 -1 -24.2000 -162.200 30 997 -24.2000 -162.200 30 997 -23.8000 -162.300 TC 25 13 237
2000064S19209 2000 17 SP MM LEO 2000-03-06 09:00:00 TS -24.2667 -162.819 main 1533 1511 P______IP___P_ SH182000 -24.0616 -162.799 25 -1 -24.4717 -162.839 32 996 -24.4717 -162.839 32 996 -24.0616 -162.799 TC 25 12 242
2000064S19209 2000 17 SP MM LEO 2000-03-06 12:00:00 TS -24.5500 -163.400 35 995 nadi main 1511 1503 O_______O___O_ jtwc_sh SH182000 -24.4000 -163.400 25 -1 -24.7000 -163.400 35 995 -24.7000 -163.400 35 995 -24.4000 -163.400 TC 25 14 239
2000064S19209 2000 17 SP MM LEO 2000-03-06 15:00:00 TS -24.9970 -164.172 main 1506 1504 P______IP___P_ SH182000 -24.9416 -164.343 40 0 -25.0523 -164.001 37 992 -25.0523 -164.001 37 992 -24.9416 -164.343 TC 40 17 232
2000064S19209 2000 17 SP MM LEO 2000-03-06 18:00:00 TS -25.6000 -164.900 40 990 wellington main 1524 1524 O_______O___O_ jtwc_sh SH182000 -25.6000 -165.200 55 0 -25.6000 -164.600 40 990 -25.6000 -164.600 40 990 -25.6000 -165.200 TC 55 17 221
2000064S19209 2000 17 SP MM LEO 2000-03-06 21:00:00 TS -26.3061 -165.422 main 1567 1567 P______IP___P_ SH182000 -26.2016 -165.572 55 0 -26.4105 -165.273 45 987 -26.4105 -165.273 45 987 -26.2016 -165.572 TC 55 18 206
2000064S19209 2000 17 SP MM LEO 2000-03-07 00:00:00 TS -27.1867 -165.747 50 985 wellington main 1643 1639 O_______O___O_ jtwc_sh SH182000 -27.0000 -165.700 55 0 -27.4000 -165.800 50 985 -27.4000 -165.800 50 985 -27.0000 -165.700 TC 55 21 191
2000064S19209 2000 17 SP MM LEO 2000-03-07 03:00:00 TS -28.3087 -165.878 main 1747 1702 P______IP___P_ SH182000 -28.1975 -165.808 42 0 -28.4421 -166.002 50 985 -28.4644 -165.955 50 985 -28.1975 -165.808 TC 42 23 184
2000064S19209 2000 17 SP MM LEO 2000-03-07 06:00:00 TS -29.5000 -165.938 50 985 wellington main 1695 1622 O_______O___O_ jtwc_sh SH182000 -29.5000 -165.900 30 -1 -29.5000 -166.000 50 985 -29.5000 -166.000 50 985 -29.5000 -165.900 TC 30 22 186
2000064S19209 2000 17 SP MM LEO 2000-03-07 09:00:00 TS -30.4892 -166.145 main 1615 1537 P_______P___P_ SH182000 -30.5875 -166.092 32 -1 -30.2926 -166.250 50 985 -30.5875 -166.092 TC 32 20 191
2000064S19209 2000 17 SP MM LEO 2000-03-07 12:00:00 TS -31.4333 -166.367 50 985 wellington main 1537 1471 O_______O___O_ jtwc_sh SH182000 -31.6000 -166.300 35 0 -31.1000 -166.500 50 985 -31.6000 -166.300 TC 35 19 191
2000064S19209 2000 17 SP MM LEO 2000-03-07 15:00:00 TS -32.3892 -166.568 main 1466 1417 P_______P___P_ SH182000 -32.5250 -166.523 35 0 -32.1175 -166.659 50 985 -32.5250 -166.523 TC 35 21 186
2000064S19209 2000 17 SP MM LEO 2000-03-07 18:00:00 TS -33.5000 -166.633 50 985 wellington main 1412 1364 O_______O___O_ jtwc_sh SH182000 -33.6000 -166.600 35 0 -33.3000 -166.700 50 985 -33.6000 -166.600 TC 35 25 179
2000064S19209 2000 17 SP MM LEO 2000-03-07 21:00:00 TS -34.8902 -166.529 main 1366 1349 P_______P___P_ SH182000 -35.0593 -166.454 32 -1 -34.5519 -166.680 47 988 -35.0593 -166.454 TC 32 30 172
2000064S19209 2000 17 SP MM LEO 2000-03-08 00:00:00 TS -36.4200 -166.160 45 992 wellington main 1351 1351 O_______O___O_ jtwc_sh SH182000 -36.7000 -166.000 30 -1 -36.0000 -166.400 45 992 -36.7000 -166.000 TC 30 33 165
2000064S19209 2000 17 SP MM LEO 2000-03-08 03:00:00 TS -38.0416 -165.502 main 1390 1390 P_______P___P_ SH182000 -38.3197 -165.208 30 -1 -37.7635 -165.795 42 992 -38.3197 -165.208 TC 30 34 159
2000064S19209 2000 17 SP MM LEO 2000-03-08 06:00:00 TS -39.6333 -164.600 40 992 wellington main 1467 1467 O_______O___O_ jtwc_sh SH182000 -39.9000 -164.200 30 -1 -39.5000 -164.800 40 992 -39.9000 -164.200 TC 30 32 151
2000064S19209 2000 17 SP MM LEO 2000-03-08 09:00:00 NR -40.8405 -163.459 main 1571 1571 ________P_____ SH182000 -1 -40.8405 -163.459 40 994 TC 31 139
2000064S19209 2000 17 SP MM LEO 2000-03-08 12:00:00 NR -42.0000 -161.900 40 996 wellington main 1715 1715 ________O_____ -1 -42.0000 -161.900 40 996 33 135
2000064S19209 2000 17 SP MM LEO 2000-03-08 15:00:00 NR -43.1731 -160.303 main 1861 1861 ________P_____ -1 -43.1731 -160.303 40 996 32 135
2000064S19209 2000 17 SP MM LEO 2000-03-08 18:00:00 NR -44.3000 -158.800 40 997 wellington main 1995 1995 ________O_____ -1 -44.3000 -158.800 40 997 29 140
2000064S19209 2000 17 SP MM LEO 2000-03-08 21:00:00 NR -45.3773 -157.699 main 2100 2100 ________P_____ -1 -45.3773 -157.699 40 990 27 144
2000064S19209 2000 17 SP MM LEO 2000-03-09 00:00:00 NR -46.5000 -156.500 40 984 wellington main 2214 2214 ________O_____ -1 -46.5000 -156.500 40 984 31 139
2000064S19209 2000 17 SP MM LEO 2000-03-09 03:00:00 NR -47.7612 -154.737 main 2378 2378 ________P_____ -1 -47.7612 -154.737 40 982 37 133
2000064S19209 2000 17 SP MM LEO 2000-03-09 06:00:00 NR -49.0000 -152.500 40 981 wellington main 2566 2566 ________O_____ -1 -49.0000 -152.500 40 981 38 126
2000064S19209 2000 17 SP MM LEO 2000-03-09 09:00:00 NR -50.0240 -150.025 main 2766 2660 ________P_____ -1 -50.0240 -150.025 40 980 40 120
2000064S19209 2000 17 SP MM LEO 2000-03-09 12:00:00 NR -51.0000 -147.000 40 979 wellington main 2648 2496 ________O_____ -1 -51.0000 -147.000 40 979 48 114
2000064S19209 2000 17 SP MM LEO 2000-03-09 15:00:00 NR -52.0235 -142.973 main 2492 2342 ________P_____ -1 -52.0235 -142.973 40 978 53 112
2000064S19209 2000 17 SP MM LEO 2000-03-09 18:00:00 NR -53.0000 -139.000 40 978 wellington main 2329 2200 ________O_____ -1 -53.0000 -139.000 40 978 45 116
2000064S19209 2000 17 SP MM LEO 2000-03-09 21:00:00 NR -53.9850 -136.144 main 2187 2070 ________P_____ -1 -53.9850 -136.144 40 976 35 124
2000064S19209 2000 17 SP MM LEO 2000-03-10 00:00:00 NR -55.0000 -134.000 40 974 wellington main 2058 ________O_____ -1 -55.0000 -134.000 40 974 32 130

Digital Typhoon Data and Search

About IBTrACS Database

This database is a web-friendly format of International Best Track Archive for Climate Stewardship (IBTrACS), a global best track data archive curated by NOAA dating back to 1842.

Updated: 2021-12-08